Destinations La Palma Airport

La Palma Airport (GCLA / SPC)

Flights to La Palma Airport

Flight number From ETE Dispatch
SPY-2478 EGPH Edinburgh Airport 04:40

Flights from La Palma Airport

Flight number To ETE Dispatch
SPY-2479 EGPH Edinburgh Airport 04:40
About

La Palma Airport facts

La Palma Airport is located in Santa Cruz De La Palma at an elevation of 32.6 meters or 107 feet.

Currently, Speedy Airlines serves 2 flights to and from La Palma Airport.

Detailed airport info

Route map

Weather

Current weather

METAR

METAR

Metar data retrieved Sunday, 21 July 2024 at 18:55 UTC

GCLA 211830Z 03015KT 360V060 9999 SCT032 25/18 Q1016
Wind Temperature
15 kt 25c